createdAt,value
2019-05-23T00:00:15.445Z,90.67
2019-05-23T00:01:15.245Z,90.16
2019-05-23T00:02:15.395Z,90.56
2019-05-23T00:03:15.247Z,90.87
2019-05-23T00:04:15.337Z,91.08
2019-05-23T00:05:15.216Z,90.97
2019-05-23T00:06:15.282Z,91.28
2019-05-23T00:07:15.179Z,91.42
2019-05-23T00:08:15.259Z,91.69
2019-05-23T00:09:15.186Z,91.22
2019-05-23T00:10:15.239Z,91.22
2019-05-23T00:11:15.164Z,91.74
2019-05-23T00:12:15.201Z,91.84
2019-05-23T00:13:15.106Z,91.84
2019-05-23T00:14:15.201Z,92.14
2019-05-23T00:15:15.145Z,91.94
2019-05-23T00:16:15.136Z,92.04
2019-05-23T00:17:15.074Z,91.84
2019-05-23T00:18:15.131Z,92.04
2019-05-23T00:19:15.054Z,91.99
2019-05-23T00:20:15.141Z,92.04
2019-05-23T00:21:15.056Z,92.19
2019-05-23T00:22:15.054Z,92.50
2019-05-23T00:23:15.021Z,92.14
2019-05-23T00:24:15.121Z,92.08
2019-05-23T00:25:15.022Z,92.40
2019-05-23T00:26:15.114Z,92.35
2019-05-23T00:27:14.971Z,92.70
2019-05-23T00:28:14.984Z,92.40
2019-05-23T00:29:14.936Z,92.29
2019-05-23T00:30:15.020Z,92.19
2019-05-23T00:31:14.933Z,91.93
2019-05-23T00:32:15.010Z,91.99
2019-05-23T00:33:14.897Z,92.03
2019-05-23T00:34:14.931Z,92.40
2019-05-23T00:35:14.879Z,92.29
2019-05-23T00:36:14.975Z,92.85
2019-05-23T00:37:14.861Z,92.85
2019-05-23T00:38:14.954Z,92.74
2019-05-23T00:39:14.896Z,93.16
2019-05-23T00:40:14.873Z,93.36
2019-05-23T00:41:14.839Z,93.36
2019-05-23T00:42:14.893Z,93.26
2019-05-23T00:43:14.779Z,93.05
2019-05-23T00:44:14.946Z,93.46
2019-05-23T00:45:14.786Z,92.85
2019-05-23T00:46:14.805Z,93.05
2019-05-23T00:47:14.763Z,93.20
2019-05-23T00:48:14.819Z,93.46
2019-05-23T00:49:14.721Z,93.36
2019-05-23T00:50:14.833Z,93.05
2019-05-23T00:51:14.713Z,93.10
2019-05-23T00:52:14.787Z,93.61
2019-05-23T00:53:14.676Z,93.40
2019-05-23T00:54:14.786Z,93.30
2019-05-23T00:55:14.648Z,93.71
2019-05-23T00:56:14.709Z,93.61
2019-05-23T00:57:14.625Z,93.71
2019-05-23T00:58:14.717Z,93.92
2019-05-23T00:59:26.486Z,93.71
2019-05-23T01:00:15.598Z,93.40
2019-05-23T01:01:14.706Z,93.51
2019-05-23T01:02:14.618Z,93.30
2019-05-23T01:03:14.620Z,93.71
2019-05-23T01:04:14.568Z,93.61
2019-05-23T01:05:14.648Z,93.92
2019-05-23T01:06:14.548Z,93.65
2019-05-23T01:07:14.669Z,93.86
2019-05-23T01:08:14.522Z,93.86
2019-05-23T01:09:14.551Z,94.17
2019-05-23T01:10:14.490Z,94.48
2019-05-23T01:11:14.599Z,94.37
2019-05-23T01:12:14.517Z,94.37
2019-05-23T01:13:14.595Z,94.37
2019-05-23T01:14:14.450Z,94.48
2019-05-23T01:15:14.495Z,94.37
2019-05-23T01:16:14.424Z,94.78
2019-05-23T01:17:14.563Z,94.58
2019-05-23T01:18:14.422Z,94.07
2019-05-23T01:19:14.431Z,94.89
2019-05-23T01:20:14.383Z,94.89
2019-05-23T01:21:14.466Z,94.68
2019-05-23T01:22:14.394Z,94.89
2019-05-23T01:23:14.486Z,94.89
2019-05-23T01:24:14.346Z,94.68
2019-05-23T01:25:14.375Z,94.78
2019-05-23T01:26:14.322Z,94.37
2019-05-23T01:27:14.391Z,94.48
2019-05-23T01:28:14.326Z,94.31
2019-05-23T01:29:14.402Z,94.52
2019-05-23T01:30:14.296Z,94.21
2019-05-23T01:31:14.316Z,94.42
2019-05-23T01:32:14.251Z,94.52
2019-05-23T01:33:14.371Z,94.21
2019-05-23T01:34:14.242Z,94.62
2019-05-23T01:35:14.336Z,94.83
2019-05-23T01:36:14.208Z,94.83
2019-05-23T01:37:14.251Z,94.62
2019-05-23T01:38:14.195Z,94.62
2019-05-23T01:39:14.291Z,94.67
2019-05-23T01:40:14.167Z,94.31
2019-05-23T01:41:14.327Z,94.77
2019-05-23T01:42:14.169Z,94.98
2019-05-23T01:43:14.213Z,95.18
2019-05-23T01:44:14.145Z,95.28
2019-05-23T01:45:14.234Z,94.77
2019-05-23T01:46:14.129Z,94.77
2019-05-23T01:47:14.204Z,94.77
2019-05-23T01:48:14.132Z,94.67
2019-05-23T01:49:14.130Z,94.56
2019-05-23T01:50:14.056Z,94.98
2019-05-23T01:51:14.173Z,94.98
2019-05-23T01:52:14.035Z,95.64
2019-05-23T01:53:14.064Z,95.43
2019-05-23T01:54:14.108Z,94.92
2019-05-23T01:55:14.061Z,94.60
2019-05-23T01:56:14.001Z,94.77
2019-05-23T01:57:14.098Z,94.60
2019-05-23T01:58:14.177Z,95.02
2019-05-23T01:59:13.980Z,95.02
2019-05-23T02:00:13.969Z,94.81
2019-05-23T02:01:14.004Z,94.96
2019-05-23T02:02:13.937Z,94.85
2019-05-23T02:03:14.006Z,95.12
2019-05-23T02:04:13.968Z,94.96
2019-05-23T02:05:13.969Z,94.96
2019-05-23T02:06:13.874Z,94.96
2019-05-23T02:07:13.940Z,95.37
2019-05-23T02:08:13.885Z,94.96
2019-05-23T02:09:13.993Z,94.96
2019-05-23T02:10:13.986Z,95.06
2019-05-23T02:11:13.867Z,94.96
2019-05-23T02:12:13.812Z,94.96
2019-05-23T02:13:13.881Z,94.96
2019-05-23T02:14:13.830Z,95.06
2019-05-23T02:15:13.891Z,95.17
2019-05-23T02:16:13.799Z,95.78
2019-05-23T02:17:13.816Z,95.58
2019-05-23T02:18:13.745Z,95.68
2019-05-23T02:19:13.990Z,95.68
2019-05-23T02:20:13.724Z,95.78
2019-05-23T02:21:13.830Z,95.62
2019-05-23T02:22:13.706Z,94.96
2019-05-23T02:23:13.748Z,95.78
2019-05-23T02:24:13.711Z,95.78
2019-05-23T02:25:13.761Z,95.73
2019-05-23T02:26:13.658Z,95.42
2019-05-23T02:27:13.774Z,95.58
2019-05-23T02:28:13.655Z,95.78
2019-05-23T02:29:13.707Z,95.73
2019-05-23T02:30:32.103Z,95.52
2019-05-23T02:31:14.618Z,95.73
2019-05-23T02:32:13.701Z,95.52
2019-05-23T02:33:13.590Z,95.73
2019-05-23T02:34:13.641Z,95.73
2019-05-23T02:35:13.556Z,95.83
2019-05-23T02:36:13.625Z,95.73
2019-05-23T02:37:13.551Z,95.10
2019-05-23T02:38:13.640Z,95.62
2019-05-23T02:39:13.521Z,95.83
2019-05-23T02:40:13.581Z,95.73
2019-05-23T02:41:13.501Z,96.03
2019-05-23T02:42:13.577Z,95.73
2019-05-23T02:43:13.479Z,95.83
2019-05-23T02:44:13.584Z,95.83
2019-05-23T02:45:13.571Z,95.62
2019-05-23T02:46:13.492Z,95.73
2019-05-23T02:47:13.444Z,95.52
2019-05-23T02:48:13.501Z,95.73
2019-05-23T02:49:13.412Z,95.46
2019-05-23T02:50:13.549Z,95.73
2019-05-23T02:51:13.386Z,95.87
2019-05-23T02:52:13.424Z,96.03
2019-05-23T02:53:13.384Z,95.67
2019-05-23T02:54:13.466Z,95.42
2019-05-23T02:55:13.384Z,95.67
2019-05-23T02:56:13.463Z,95.87
2019-05-23T02:57:13.358Z,95.46
2019-05-23T02:58:13.365Z,95.98
2019-05-23T02:59:13.307Z,95.46
2019-05-23T03:00:13.419Z,95.87
2019-05-23T03:01:13.282Z,95.67
2019-05-23T03:02:13.295Z,95.77
2019-05-23T03:03:13.268Z,95.56
2019-05-23T03:04:13.313Z,95.77
2019-05-23T03:05:13.268Z,95.36
2019-05-23T03:06:13.324Z,95.71
2019-05-23T03:07:13.223Z,95.67
2019-05-23T03:08:13.232Z,96.12
2019-05-23T03:09:13.203Z,95.92
2019-05-23T03:10:13.300Z,96.12
2019-05-23T03:11:13.211Z,95.77
2019-05-23T03:12:13.362Z,96.33
2019-05-23T03:13:13.154Z,96.84
2019-05-23T03:14:13.175Z,96.70
2019-05-23T03:15:13.141Z,96.64
2019-05-23T03:16:13.221Z,96.84
2019-05-23T03:17:13.110Z,96.95
2019-05-23T03:18:13.203Z,96.74
2019-05-23T03:19:13.087Z,96.74
2019-05-23T03:20:13.145Z,97.05
2019-05-23T03:21:13.108Z,97.16
2019-05-23T03:22:13.132Z,96.84
2019-05-23T03:23:13.074Z,96.95
2019-05-23T03:24:13.147Z,96.44
2019-05-23T03:25:13.027Z,96.74
2019-05-23T03:26:13.086Z,96.44
2019-05-23T03:27:13.001Z,96.02
2019-05-23T03:28:13.068Z,96.64
2019-05-23T03:29:12.986Z,96.53
2019-05-23T03:30:13.127Z,96.02
2019-05-23T03:31:28.442Z,96.33
2019-05-23T03:32:13.967Z,97.09
2019-05-23T03:33:13.022Z,96.79
2019-05-23T03:34:12.925Z,96.53
2019-05-23T03:35:13.070Z,96.64
2019-05-23T03:36:12.941Z,96.84
2019-05-23T03:37:12.965Z,96.44
2019-05-23T03:38:12.876Z,97.05
2019-05-23T03:39:12.937Z,97.05
2019-05-23T03:40:12.856Z,96.53
2019-05-23T03:41:12.984Z,96.84
2019-05-23T03:42:12.877Z,96.69
2019-05-23T03:43:12.869Z,97.16
2019-05-23T03:44:12.830Z,96.95
2019-05-23T03:45:12.891Z,96.48
2019-05-23T03:46:12.806Z,97.09
2019-05-23T03:47:12.930Z,96.69
2019-05-23T03:48:12.783Z,96.89
2019-05-23T03:49:12.807Z,96.69
2019-05-23T03:50:12.755Z,96.89
2019-05-23T03:51:12.826Z,97.09
2019-05-23T03:52:12.769Z,96.79
2019-05-23T03:53:12.843Z,96.69
2019-05-23T03:54:12.707Z,96.64
2019-05-23T03:55:12.760Z,96.74
2019-05-23T03:56:12.684Z,96.69
2019-05-23T03:57:12.802Z,96.89
2019-05-23T03:58:12.705Z,96.84
2019-05-23T03:59:12.775Z,96.74
2019-05-23T04:00:12.646Z,96.99
2019-05-23T04:01:12.700Z,96.74
2019-05-23T04:02:12.636Z,96.74
2019-05-23T04:03:12.713Z,96.64
2019-05-23T04:04:12.626Z,96.84
2019-05-23T04:05:12.726Z,96.84
2019-05-23T04:06:12.580Z,97.16
2019-05-23T04:07:12.657Z,97.05
2019-05-23T04:08:12.578Z,96.95
2019-05-23T04:09:13.589Z,96.74
2019-05-23T04:10:12.538Z,96.74
2019-05-23T04:11:12.551Z,96.84
2019-05-23T04:12:12.524Z,96.64
2019-05-23T04:13:12.711Z,96.84
2019-05-23T04:14:12.488Z,96.80
2019-05-23T04:15:12.588Z,97.42
2019-05-23T04:16:12.477Z,96.91
2019-05-23T04:17:12.537Z,97.31
2019-05-23T04:18:12.442Z,97.42
2019-05-23T04:19:12.538Z,97.21
2019-05-23T04:20:12.444Z,97.31
2019-05-23T04:21:12.529Z,97.42
2019-05-23T04:22:12.451Z,97.27
2019-05-23T04:23:12.464Z,97.58
2019-05-23T04:24:12.378Z,97.58
2019-05-23T04:25:12.451Z,97.58
2019-05-23T04:26:12.381Z,97.38
2019-05-23T04:27:12.469Z,98.61
2019-05-23T04:28:12.365Z,98.36
2019-05-23T04:29:12.403Z,98.25
2019-05-23T04:30:12.333Z,98.36
2019-05-23T04:31:13.390Z,97.53
2019-05-23T04:32:12.290Z,97.53
2019-05-23T04:33:12.429Z,97.13
2019-05-23T04:34:12.265Z,97.43
2019-05-23T04:35:12.346Z,97.69
2019-05-23T04:36:12.263Z,97.33
2019-05-23T04:37:12.325Z,97.18
2019-05-23T04:38:12.251Z,97.49
2019-05-23T04:39:12.649Z,97.08
2019-05-23T04:40:12.239Z,97.28
2019-05-23T04:41:12.290Z,97.24
2019-05-23T04:42:12.180Z,97.08
2019-05-23T04:43:12.293Z,97.14
2019-05-23T04:44:12.167Z,97.18
2019-05-23T04:45:12.173Z,96.83
2019-05-23T04:46:12.138Z,96.93
2019-05-23T04:47:12.183Z,96.42
2019-05-23T04:48:12.160Z,96.52
2019-05-23T04:49:12.222Z,96.72
2019-05-23T04:50:12.109Z,96.42
2019-05-23T04:51:12.223Z,96.52
2019-05-23T04:52:12.074Z,96.78
2019-05-23T04:53:12.154Z,96.62
2019-05-23T04:54:12.132Z,96.58
2019-05-23T04:55:12.153Z,96.68
2019-05-23T04:56:12.049Z,96.47
2019-05-23T04:57:12.051Z,96.37
2019-05-23T04:58:12.263Z,96.78
2019-05-23T04:59:12.097Z,96.68
2019-05-23T05:00:12.004Z,96.68
2019-05-23T05:01:12.085Z,96.78
2019-05-23T05:02:25.696Z,96.78
2019-05-23T05:03:12.958Z,96.99
2019-05-23T05:04:12.057Z,96.89
2019-05-23T05:05:11.969Z,96.64
2019-05-23T05:06:12.009Z,96.78
2019-05-23T05:07:12.046Z,96.53
2019-05-23T05:08:12.189Z,96.43
2019-05-23T05:09:11.939Z,96.22
2019-05-23T05:10:12.019Z,96.12
2019-05-23T05:11:11.876Z,96.33
2019-05-23T05:12:11.981Z,96.73
2019-05-23T05:13:11.871Z,96.18
2019-05-23T05:14:11.892Z,96.22
2019-05-23T05:15:11.929Z,95.81
2019-05-23T05:16:11.875Z,95.77
2019-05-23T05:17:11.800Z,95.67
2019-05-23T05:18:11.901Z,95.46
2019-05-23T05:19:11.792Z,95.77
2019-05-23T05:20:11.846Z,95.67
2019-05-23T05:21:11.780Z,95.62
2019-05-23T05:22:11.846Z,95.52
2019-05-23T05:23:11.749Z,95.83
2019-05-23T05:24:12.156Z,94.90
2019-05-23T05:25:11.753Z,95.06
2019-05-23T05:26:11.762Z,95.06
2019-05-23T05:27:11.693Z,95.47
2019-05-23T05:28:11.765Z,95.57
2019-05-23T05:29:11.682Z,95.27
2019-05-23T05:30:11.829Z,95.37
2019-05-23T05:31:11.662Z,95.27
2019-05-23T05:32:11.699Z,95.23
2019-05-23T05:33:11.628Z,94.92
2019-05-23T05:34:11.713Z,95.64
2019-05-23T05:35:11.680Z,95.43
2019-05-23T05:36:11.759Z,95.18
2019-05-23T05:37:11.605Z,95.18
2019-05-23T05:38:11.634Z,95.18
2019-05-23T05:39:11.574Z,95.18
2019-05-23T05:40:11.686Z,95.44
2019-05-23T05:41:11.552Z,95.44
2019-05-23T05:42:11.658Z,95.03
2019-05-23T05:43:11.514Z,95.34
2019-05-23T05:44:12.009Z,95.29
2019-05-23T05:45:11.677Z,94.48
2019-05-23T05:46:11.630Z,94.27
2019-05-23T05:47:11.506Z,94.37
2019-05-23T05:48:11.592Z,94.48
2019-05-23T05:49:11.445Z,93.71
2019-05-23T05:50:11.539Z,93.92
2019-05-23T05:51:11.471Z,94.12
2019-05-23T05:52:11.535Z,93.30
2019-05-23T05:53:11.424Z,93.30
2019-05-23T05:54:11.473Z,93.16
2019-05-23T05:55:11.409Z,93.16
2019-05-23T05:56:11.511Z,92.85
2019-05-23T05:57:11.378Z,92.55
2019-05-23T05:58:11.464Z,91.78
2019-05-23T05:59:11.361Z,91.48
2019-05-23T06:00:12.978Z,91.48
2019-05-23T06:01:11.399Z,91.78
2019-05-23T06:02:11.401Z,91.89
2019-05-23T06:03:11.366Z,91.74
2019-05-23T06:04:11.510Z,91.54
2019-05-23T06:05:11.285Z,91.50
2019-05-23T06:06:11.356Z,90.99
2019-05-23T06:07:11.253Z,90.68
2019-05-23T06:08:11.330Z,90.78
2019-05-23T06:09:11.244Z,90.27
2019-05-23T06:10:11.344Z,89.20
2019-05-23T06:11:11.261Z,89.11
2019-05-23T06:13:12.358Z,89.00
2019-05-23T06:14:11.268Z,89.06
2019-05-23T06:15:11.175Z,88.96
2019-05-23T06:16:11.325Z,88.45
2019-05-23T06:17:11.147Z,88.76
2019-05-23T06:18:11.152Z,88.65
2019-05-23T06:19:11.127Z,89.02
2019-05-23T06:20:11.235Z,88.82
2019-05-23T06:21:11.240Z,87.96
2019-05-23T06:22:11.249Z,88.06
2019-05-23T06:23:11.090Z,88.57
2019-05-23T06:24:11.133Z,87.65
2019-05-23T06:25:11.394Z,87.92
2019-05-23T06:26:11.155Z,87.20
2019-05-23T06:27:11.072Z,88.12
2019-05-23T06:28:11.053Z,87.10
2019-05-23T06:29:11.019Z,85.98
2019-05-23T06:30:11.075Z,86.18
2019-05-23T06:31:11.030Z,85.53
2019-05-23T06:32:11.113Z,86.24
2019-05-23T06:33:22.608Z,86.24
2019-05-23T06:34:11.953Z,86.10
2019-05-23T06:35:11.122Z,85.08
2019-05-23T06:36:10.963Z,85.08
2019-05-23T06:37:11.055Z,85.25
2019-05-23T06:38:10.957Z,84.12
2019-05-23T06:39:11.052Z,83.92
2019-05-23T06:40:10.892Z,83.11
2019-05-23T06:41:11.068Z,84.53
2019-05-23T06:42:10.901Z,84.23
2019-05-23T06:43:10.986Z,83.48
2019-05-23T06:44:10.856Z,83.48
2019-05-23T06:45:11.047Z,83.17
2019-05-23T06:46:10.833Z,83.74
2019-05-23T06:47:10.890Z,82.62
2019-05-23T06:48:10.831Z,82.21
2019-05-23T06:49:10.890Z,82.21
2019-05-23T06:50:10.793Z,82.62
2019-05-23T06:51:10.866Z,82.79
2019-05-23T06:52:10.812Z,81.37
2019-05-23T06:53:10.850Z,81.46
2019-05-23T06:54:10.740Z,81.43
2019-05-23T06:55:10.838Z,80.92
2019-05-23T06:56:10.717Z,81.73
2019-05-23T06:57:10.775Z,80.17
2019-05-23T06:58:10.724Z,79.16
2019-05-23T06:59:10.748Z,79.36
2019-05-23T07:00:10.691Z,78.61
2019-05-23T07:01:10.772Z,77.90
2019-05-23T07:02:10.653Z,78.20
2019-05-23T07:03:10.802Z,77.05
2019-05-23T07:04:10.645Z,76.34
2019-05-23T07:05:10.797Z,77.05
2019-05-23T07:06:10.620Z,76.64
2019-05-23T07:07:10.713Z,76.61
2019-05-23T07:08:10.617Z,76.20
2019-05-23T07:09:10.617Z,74.88
2019-05-23T07:10:10.591Z,74.04
2019-05-23T07:11:10.654Z,73.93
2019-05-23T07:12:10.554Z,73.09
2019-05-23T07:13:10.693Z,73.29
2019-05-23T07:14:10.531Z,73.09
2019-05-23T07:15:10.557Z,71.16
2019-05-23T07:16:10.515Z,71.94
2019-05-23T07:17:10.677Z,72.38
2019-05-23T07:18:10.544Z,72.24
2019-05-23T07:19:10.630Z,71.53
2019-05-23T07:20:10.469Z,72.01
2019-05-23T07:21:10.509Z,72.21
2019-05-23T07:22:10.477Z,72.81
2019-05-23T07:23:10.513Z,72.01
2019-05-23T07:24:10.438Z,71.06
2019-05-23T07:25:10.560Z,70.86
2019-05-23T07:26:10.410Z,70.45
2019-05-23T07:27:10.443Z,69.74
2019-05-23T07:28:10.390Z,70.62
2019-05-23T07:29:10.512Z,70.73
2019-05-23T07:30:10.353Z,70.73
2019-05-23T07:31:10.363Z,67.49
2019-05-23T07:32:10.328Z,68.26
2019-05-23T07:33:10.415Z,68.16
2019-05-23T07:34:10.384Z,68.26
2019-05-23T07:35:10.398Z,68.16
2019-05-23T07:36:10.297Z,68.26
2019-05-23T07:37:10.426Z,68.97
2019-05-23T07:38:10.266Z,69.48
2019-05-23T07:39:11.618Z,67.96
2019-05-23T07:40:10.272Z,66.75
2019-05-23T07:41:10.363Z,68.13
2019-05-23T07:42:10.228Z,66.92
2019-05-23T07:43:10.253Z,68.03
2019-05-23T07:44:10.280Z,67.72
2019-05-23T07:45:10.262Z,66.61
2019-05-23T07:46:10.178Z,66.31
2019-05-23T07:47:10.273Z,67.39
2019-05-23T07:48:10.167Z,67.09
2019-05-23T07:49:10.240Z,66.28
2019-05-23T07:50:10.132Z,64.97
2019-05-23T07:51:10.234Z,65.47
2019-05-23T07:52:10.152Z,65.88
2019-05-23T07:53:10.207Z,64.13
2019-05-23T07:54:10.151Z,65.57
2019-05-23T07:55:10.187Z,66.25
2019-05-23T07:56:10.090Z,66.93
2019-05-23T07:57:10.151Z,66.12
2019-05-23T07:58:13.454Z,64.10
2019-05-23T07:59:10.144Z,64.37
2019-05-23T08:00:10.050Z,63.16
2019-05-23T08:01:10.089Z,64.17
2019-05-23T08:02:09.996Z,65.18
2019-05-23T08:03:10.075Z,65.58
2019-05-23T08:04:21.031Z,65.15
2019-05-23T08:05:10.996Z,64.27
2019-05-23T08:06:10.003Z,63.33
2019-05-23T08:07:09.949Z,62.83
2019-05-23T08:08:10.207Z,62.40
2019-05-23T08:09:09.917Z,62.19
2019-05-23T08:10:10.063Z,62.40
2019-05-23T08:11:09.931Z,61.82
2019-05-23T08:12:10.057Z,62.40
2019-05-23T08:13:09.903Z,62.70
2019-05-23T08:14:11.971Z,63.70
2019-05-23T08:15:09.895Z,62.60
2019-05-23T08:16:09.980Z,63.40
2019-05-23T08:17:09.832Z,62.66
2019-05-23T08:18:09.871Z,63.37
2019-05-23T08:19:09.858Z,62.16
2019-05-23T08:20:09.960Z,61.05
2019-05-23T08:21:09.823Z,61.56
2019-05-23T08:22:09.909Z,62.04
2019-05-23T08:23:09.772Z,63.24
2019-05-23T08:24:09.810Z,62.74
2019-05-23T08:25:09.777Z,61.43
2019-05-23T08:26:09.868Z,60.83
2019-05-23T08:27:09.730Z,61.20
2019-05-23T08:28:09.844Z,60.22
2019-05-23T08:29:25.418Z,62.04
2019-05-23T08:30:10.747Z,60.80
2019-05-23T08:31:09.800Z,57.98
2019-05-23T08:32:09.669Z,57.98
2019-05-23T08:33:09.792Z,58.88
2019-05-23T08:34:09.673Z,61.20
2019-05-23T08:35:09.691Z,58.18
2019-05-23T08:36:09.663Z,56.44
2019-05-23T08:37:09.699Z,56.14
2019-05-23T08:38:09.598Z,54.63
2019-05-23T08:39:09.720Z,55.83
2019-05-23T08:40:09.577Z,56.04
2019-05-23T08:41:09.699Z,56.71
2019-05-23T08:42:09.598Z,56.82
2019-05-23T08:43:09.635Z,58.33
2019-05-23T08:44:11.575Z,56.92
2019-05-23T08:45:09.653Z,58.53
2019-05-23T08:46:09.537Z,54.40
2019-05-23T08:47:09.561Z,52.97
2019-05-23T08:48:09.501Z,51.29
2019-05-23T08:49:09.575Z,50.46
2019-05-23T08:50:09.470Z,50.66
2019-05-23T08:51:09.520Z,50.15
2019-05-23T08:52:09.459Z,49.45
2019-05-23T08:53:09.504Z,51.46
2019-05-23T08:54:09.458Z,50.15
2019-05-23T08:55:09.518Z,49.13
2019-05-23T08:56:18.486Z,53.25
2019-05-23T08:57:10.409Z,51.11
2019-05-23T08:58:09.451Z,51.81
2019-05-23T08:59:09.427Z,52.12
2019-05-23T09:00:09.451Z,51.01
2019-05-23T09:01:09.396Z,49.10
2019-05-23T09:02:09.456Z,47.60
2019-05-23T09:03:09.347Z,50.61
2019-05-23T09:04:09.369Z,49.30
2019-05-23T09:05:09.311Z,49.91
2019-05-23T09:06:09.442Z,50.38
2019-05-23T09:07:09.295Z,49.28
2019-05-23T09:08:09.296Z,48.88
2019-05-23T09:09:27.899Z,48.68
2019-05-23T09:10:10.250Z,48.08
2019-05-23T09:11:09.333Z,48.28
2019-05-23T09:12:09.259Z,49.88
2019-05-23T09:13:09.331Z,48.86
2019-05-23T09:14:09.223Z,49.78
2019-05-23T09:15:10.312Z,47.65
2019-05-23T09:16:09.190Z,47.45
2019-05-23T09:17:09.405Z,45.45
2019-05-23T09:18:09.163Z,45.95
2019-05-23T09:19:09.286Z,47.03
2019-05-23T09:20:09.201Z,45.92
2019-05-23T09:21:09.179Z,44.24
2019-05-23T09:22:09.155Z,43.14
2019-05-23T09:23:09.198Z,45.12
2019-05-23T09:24:09.113Z,44.22
2019-05-23T09:25:09.210Z,45.22
2019-05-23T09:26:09.082Z,44.30
2019-05-23T09:27:09.502Z,45.72
2019-05-23T09:28:09.064Z,47.00
2019-05-23T09:29:09.133Z,46.41
2019-05-23T09:30:09.037Z,45.80
2019-05-23T09:31:09.152Z,45.60
2019-05-23T09:32:09.065Z,46.11
2019-05-23T09:33:09.063Z,44.70
2019-05-23T09:34:08.988Z,44.20
2019-05-23T09:35:20.570Z,43.10
2019-05-23T09:36:09.969Z,42.19
2019-05-23T09:37:09.026Z,41.09
2019-05-23T09:38:08.983Z,45.80
2019-05-23T09:39:09.062Z,43.10
2019-05-23T09:40:08.929Z,43.27
2019-05-23T09:41:09.035Z,44.58
2019-05-23T09:42:12.060Z,45.26
2019-05-23T09:43:08.952Z,44.46
2019-05-23T09:44:08.879Z,42.63
2019-05-23T09:45:08.954Z,43.13
2019-05-23T09:46:08.860Z,44.43
2019-05-23T09:47:08.999Z,42.46
2019-05-23T09:48:08.895Z,42.93
2019-05-23T09:49:11.335Z,44.13
2019-05-23T09:50:08.821Z,43.93
2019-05-23T09:51:08.917Z,42.33
2019-05-23T09:52:09.603Z,43.13
2019-05-23T09:53:08.938Z,42.24
2019-05-23T09:54:08.780Z,42.32
2019-05-23T09:55:08.860Z,42.82
2019-05-23T09:56:08.758Z,44.01
2019-05-23T09:57:08.969Z,41.61
2019-05-23T09:58:08.849Z,41.71
2019-05-23T09:59:08.835Z,45.42
2019-05-23T10:00:08.767Z,42.91
2019-05-23T10:01:08.795Z,40.01
2019-05-23T10:02:08.696Z,42.43
2019-05-23T10:03:08.819Z,43.24
2019-05-23T10:04:08.763Z,43.01
2019-05-23T10:05:08.839Z,39.91
2019-05-23T10:06:08.645Z,42.19
2019-05-23T10:07:08.733Z,42.29
2019-05-23T10:08:08.823Z,42.77
2019-05-23T10:09:08.701Z,40.30
2019-05-23T10:10:08.689Z,42.27
2019-05-23T10:11:08.710Z,42.77
2019-05-23T10:12:08.632Z,42.05
2019-05-23T10:13:08.729Z,42.46
2019-05-23T10:14:08.566Z,43.73
2019-05-23T10:15:08.643Z,42.13
2019-05-23T10:16:08.614Z,42.51
2019-05-23T10:17:08.550Z,40.22
2019-05-23T10:18:08.748Z,39.72
2019-05-23T10:19:08.569Z,41.52
2019-05-23T10:20:08.536Z,41.22
2019-05-23T10:21:08.587Z,39.12
2019-05-23T10:22:08.472Z,40.22
2019-05-23T10:23:08.812Z,40.01
2019-05-23T10:24:08.508Z,39.04
2019-05-23T10:25:08.524Z,40.23
2019-05-23T10:26:08.467Z,40.23
2019-05-23T10:27:08.516Z,42.71
2019-05-23T10:28:08.467Z,42.13
2019-05-23T10:29:08.497Z,42.11
2019-05-23T10:30:08.415Z,41.41
2019-05-23T10:31:08.449Z,42.19
2019-05-23T10:32:08.375Z,40.89
2019-05-23T10:34:09.526Z,41.97
2019-05-23T10:35:08.404Z,41.08
2019-05-23T10:36:08.315Z,39.28
2019-05-23T10:37:08.384Z,40.48
2019-05-23T10:38:08.304Z,39.78
2019-05-23T10:39:08.428Z,40.12
2019-05-23T10:40:08.280Z,39.82
2019-05-23T10:41:08.431Z,39.92
2019-05-23T10:42:08.298Z,40.62
2019-05-23T10:43:08.332Z,38.22
2019-05-23T10:44:08.233Z,40.59
2019-05-23T10:45:08.408Z,41.17
2019-05-23T10:46:08.248Z,38.78
2019-05-23T10:47:08.256Z,38.48
2019-05-23T10:48:08.185Z,39.48
2019-05-23T10:49:08.298Z,40.18
2019-05-23T10:50:09.947Z,39.78
2019-05-23T10:51:08.482Z,42.79
2019-05-23T10:52:08.141Z,39.38
2019-05-23T10:53:08.190Z,38.59
2019-05-23T10:54:08.154Z,40.28
2019-05-23T10:55:08.238Z,39.98
2019-05-23T10:56:08.109Z,39.88
2019-05-23T10:57:08.248Z,38.29
2019-05-23T10:58:08.106Z,37.81
2019-05-23T10:59:08.285Z,37.30
2019-05-23T11:00:08.070Z,37.68
2019-05-23T11:01:08.455Z,38.48
2019-05-23T11:02:08.042Z,41.58
2019-05-23T11:03:08.059Z,38.78
2019-05-23T11:04:08.185Z,38.56
2019-05-23T11:05:12.732Z,37.95
2019-05-23T11:06:16.363Z,39.84
2019-05-23T11:07:09.005Z,36.55
2019-05-23T11:08:07.966Z,36.05
2019-05-23T11:09:08.032Z,35.46
2019-05-23T11:10:07.985Z,37.75
2019-05-23T11:11:08.025Z,38.15
2019-05-23T11:12:08.343Z,37.25
2019-05-23T11:13:08.032Z,40.72
2019-05-23T11:14:08.867Z,37.55
2019-05-23T11:15:08.991Z,37.55
2019-05-23T11:16:07.904Z,37.85
2019-05-23T11:17:07.974Z,37.55
2019-05-23T11:18:07.874Z,38.63
2019-05-23T11:19:07.991Z,37.13
2019-05-23T11:20:07.878Z,38.43
2019-05-23T11:21:08.008Z,37.43
2019-05-23T11:22:07.834Z,36.92
2019-05-23T11:23:07.993Z,38.11
2019-05-23T11:24:07.817Z,38.01
2019-05-23T11:25:08.070Z,37.12
2019-05-23T11:26:07.793Z,36.93
2019-05-23T11:27:07.853Z,35.22
2019-05-23T11:28:07.891Z,37.34
2019-05-23T11:30:08.915Z,37.43
2019-05-23T11:31:07.873Z,36.42
2019-05-23T11:32:07.733Z,36.90
2019-05-23T11:33:07.754Z,37.40
2019-05-23T11:34:07.726Z,37.68
2019-05-23T11:35:07.777Z,36.68
2019-05-23T11:36:07.715Z,35.21
2019-05-23T11:37:07.791Z,36.40
2019-05-23T11:38:07.676Z,35.91
2019-05-23T11:39:07.702Z,36.90
2019-05-23T11:40:07.633Z,38.39
2019-05-23T11:41:07.748Z,37.40
2019-05-23T11:42:07.610Z,37.49
2019-05-23T11:43:07.748Z,35.94
2019-05-23T11:44:07.612Z,37.53
2019-05-23T11:46:08.751Z,36.52
2019-05-23T11:47:07.792Z,37.90
2019-05-23T11:48:07.664Z,36.40
2019-05-23T11:49:07.707Z,36.34
2019-05-23T11:50:07.656Z,35.34
2019-05-23T11:51:07.738Z,36.85
2019-05-23T11:52:07.578Z,36.16
2019-05-23T11:53:07.507Z,37.25
2019-05-23T11:54:09.700Z,38.23
2019-05-23T11:55:07.502Z,37.02
2019-05-23T11:56:07.562Z,37.02
2019-05-23T11:57:07.506Z,36.32
2019-05-23T11:58:07.431Z,36.52
2019-05-23T11:59:07.538Z,37.62
2019-05-23T12:00:07.414Z,37.41
2019-05-23T12:01:07.700Z,37.99
2019-05-23T12:02:07.481Z,38.28
2019-05-23T12:03:07.456Z,36.88
2019-05-23T12:04:07.440Z,36.29
2019-05-23T12:05:07.541Z,34.99
2019-05-23T12:06:07.344Z,36.38
2019-05-23T12:07:07.544Z,36.49
2019-05-23T12:08:07.321Z,35.49
2019-05-23T12:09:07.504Z,34.10
2019-05-23T12:10:07.332Z,33.80
2019-05-23T12:11:07.735Z,32.09
2019-05-23T12:12:07.332Z,33.69
2019-05-23T12:13:07.524Z,33.69
2019-05-23T12:14:07.258Z,34.08
2019-05-23T12:15:07.547Z,36.15
2019-05-23T12:16:07.260Z,36.13
2019-05-23T12:17:08.712Z,34.64
2019-05-23T12:18:07.210Z,34.05
2019-05-23T12:19:07.594Z,33.87
2019-05-23T12:20:07.201Z,33.65
2019-05-23T12:21:07.501Z,34.05
2019-05-23T12:22:07.218Z,33.73
2019-05-23T12:23:10.968Z,35.32
2019-05-23T12:24:07.201Z,35.90
2019-05-23T12:25:20.875Z,36.40
2019-05-23T12:26:08.118Z,34.71
2019-05-23T12:27:07.195Z,35.72
2019-05-23T12:28:07.172Z,32.76
2019-05-23T12:29:07.555Z,32.97
2019-05-23T12:30:07.090Z,32.97
2019-05-23T12:31:07.563Z,34.38
2019-05-23T12:32:07.082Z,36.49
2019-05-23T12:33:07.544Z,36.87
2019-05-23T12:34:07.060Z,36.36
2019-05-23T12:35:10.938Z,38.73
2019-05-23T12:36:07.092Z,34.46
2019-05-23T12:37:19.077Z,36.23
2019-05-23T12:38:08.024Z,36.35
2019-05-23T12:39:07.091Z,32.09
2019-05-23T12:40:07.028Z,34.40
2019-05-23T12:41:07.027Z,35.49
2019-05-23T12:42:06.960Z,35.10
2019-05-23T12:43:07.078Z,35.39
2019-05-23T12:44:06.963Z,36.08
2019-05-23T12:46:08.172Z,35.29
2019-05-23T12:48:08.122Z,35.71
2019-05-23T12:50:08.051Z,34.99
2019-05-23T12:51:09.324Z,36.29
2019-05-23T12:52:06.881Z,35.39
2019-05-23T12:53:08.358Z,36.98
2019-05-23T12:54:06.843Z,35.19
2019-05-23T12:55:08.577Z,35.29
2019-05-23T12:56:06.832Z,33.90
2019-05-23T12:57:08.557Z,33.60
2019-05-23T12:58:06.831Z,37.08
2019-05-23T12:59:08.642Z,35.31